Time;durP1;ratioP1;P1;durP2;ratioP2;P2;SDS_P1;SDS_P2;PMS_P1;PMS_P2;Temp;Humidity;BMP_temperature;BMP_pressure;BME280_temperature;BME280_humidity;BME280_pressure;Samples;Min_cycle;Max_cycle;Signal;HPM_P1;HPM_P2
2023/12/19 00:00:48;;;;;;;7.80;6.67;;;8.90;1.00;;;;;;5057097;28;20175;-67
2023/12/19 00:03:13;;;;;;;12.30;6.47;;;9.00;1.00;;;;;;5054590;28;20199;-69
2023/12/19 00:05:40;;;;;;;6.43;5.73;;;9.00;1.00;;;;;;5054613;28;20244;-65
2023/12/19 00:08:07;;;;;;;7.83;7.03;;;9.00;1.00;;;;;;5055092;28;20186;-66
2023/12/19 00:10:34;;;;;;;8.43;7.20;;;9.00;1.00;;;;;;5055307;28;20408;-68
2023/12/19 00:13:00;;;;;;;7.30;6.27;;;9.00;1.00;;;;;;5055348;28;20369;-68
2023/12/19 00:15:26;;;;;;;9.10;7.30;;;9.00;1.00;;;;;;5061273;28;20417;-68
2023/12/19 00:17:52;;;;;;;7.47;5.60;;;9.10;1.00;;;;;;5055386;28;20455;-65
2023/12/19 00:20:17;;;;;;;7.83;6.33;;;9.10;1.00;;;;;;5055177;28;20449;-66
2023/12/19 00:22:43;;;;;;;8.30;6.47;;;9.10;1.00;;;;;;5057892;28;20177;-66
2023/12/19 00:25:09;;;;;;;11.43;7.33;;;9.10;1.00;;;;;;5074010;28;20185;-65
2023/12/19 00:27:34;;;;;;;8.70;7.20;;;9.20;1.00;;;;;;5067164;28;20208;-65
2023/12/19 00:30:00;;;;;;;8.90;7.20;;;9.20;1.00;;;;;;5054893;28;20175;-65
2023/12/19 00:32:26;;;;;;;8.70;7.10;;;9.20;1.00;;;;;;5065291;28;20643;-68
2023/12/19 00:34:53;;;;;;;9.17;7.13;;;9.20;1.00;;;;;;5071388;28;20200;-66
2023/12/19 00:37:19;;;;;;;7.83;6.93;;;9.30;1.00;;;;;;5062122;28;20466;-66
2023/12/19 00:39:44;;;;;;;8.67;7.27;;;9.30;1.00;;;;;;5074832;28;20435;-67
2023/12/19 00:42:10;;;;;;;9.80;8.27;;;9.30;1.00;;;;;;5071851;28;20203;-69
2023/12/19 00:44:37;;;;;;;9.40;7.60;;;9.30;1.00;;;;;;5067125;28;20210;-67
2023/12/19 00:47:03;;;;;;;11.00;7.70;;;9.30;1.00;;;;;;5053692;28;20423;-65
2023/12/19 00:49:29;;;;;;;5.40;4.90;;;9.30;1.00;;;;;;5054694;28;20376;-66
2023/12/19 00:51:55;;;;;;;8.50;7.63;;;9.40;1.00;;;;;;5053416;28;20414;-68
2023/12/19 00:54:22;;;;;;;8.97;7.43;;;9.40;1.00;;;;;;5054499;28;20466;-66
2023/12/19 00:56:48;;;;;;;11.10;7.90;;;9.40;1.00;;;;;;5057195;28;20407;-66
2023/12/19 00:59:13;;;;;;;9.40;7.50;;;9.40;1.00;;;;;;5074314;28;20448;-69
2023/12/19 01:01:40;;;;;;;7.67;6.80;;;9.40;1.00;;;;;;5054196;28;20173;-68
2023/12/19 01:04:08;;;;;;;9.10;7.57;;;9.40;1.00;;;;;;5053344;28;20162;-67
2023/12/19 01:06:35;;;;;;;8.50;6.97;;;9.50;1.00;;;;;;5053536;28;20484;-66
2023/12/19 01:09:01;;;;;;;9.27;7.00;;;9.50;1.00;;;;;;5053072;28;20899;-67
2023/12/19 01:11:26;;;;;;;9.00;7.27;;;9.40;1.00;;;;;;5056741;28;20501;-67
2023/12/19 01:13:52;;;;;;;8.40;7.17;;;9.50;1.00;;;;;;5074043;28;20173;-68
2023/12/19 01:16:18;;;;;;;9.70;8.80;;;9.50;1.00;;;;;;5053048;28;20326;-66
2023/12/19 01:18:43;;;;;;;8.07;7.30;;;9.50;1.00;;;;;;5057898;28;20202;-66
2023/12/19 01:21:09;;;;;;;6.90;6.20;;;9.50;1.00;;;;;;5074631;28;20628;-66
2023/12/19 01:23:35;;;;;;;7.60;6.10;;;9.50;1.00;;;;;;5074024;28;20161;-65
2023/12/19 01:26:01;;;;;;;4.80;4.20;;;9.50;1.00;;;;;;5059675;28;20186;-65
2023/12/19 01:28:27;;;;;;;5.77;5.13;;;9.50;1.00;;;;;;5053765;28;20184;-68
2023/12/19 01:30:52;;;;;;;6.33;5.70;;;9.50;1.00;;;;;;5053120;28;20419;-69
2023/12/19 01:33:18;;;;;;;6.83;6.17;;;9.50;1.00;;;;;;5064814;28;20501;-67
2023/12/19 01:35:44;;;;;;;8.87;6.90;;;9.50;1.00;;;;;;5072890;28;20195;-65
2023/12/19 01:38:09;;;;;;;7.37;6.03;;;9.50;1.00;;;;;;5070620;28;20218;-66
2023/12/19 01:40:35;;;;;;;8.33;6.90;;;9.50;1.00;;;;;;5072422;28;20170;-66
2023/12/19 01:43:02;;;;;;;6.97;6.03;;;9.50;1.00;;;;;;5048231;28;20181;-67
2023/12/19 01:45:28;;;;;;;9.93;7.30;;;9.50;1.00;;;;;;5056217;28;20178;-68
2023/12/19 01:47:55;;;;;;;8.33;6.90;;;9.50;1.00;;;;;;5073372;28;20439;-69
2023/12/19 01:50:21;;;;;;;8.17;7.37;;;9.50;1.00;;;;;;5073372;28;20411;-65
2023/12/19 01:52:53;;;;;;;11.00;8.07;;;9.50;1.00;;;;;;5073602;28;20410;-65
2023/12/19 01:55:20;;;;;;;9.50;7.70;;;9.50;1.00;;;;;;5072341;28;20188;-67
2023/12/19 01:57:46;;;;;;;11.10;7.90;;;9.50;1.00;;;;;;5073931;28;20823;-67
2023/12/19 02:00:13;;;;;;;9.77;7.03;;;9.50;1.00;;;;;;5073038;28;20422;-67
2023/12/19 02:02:40;;;;;;;8.83;7.37;;;9.50;1.00;;;;;;5033470;28;20440;-65
2023/12/19 02:05:07;;;;;;;8.57;5.77;;;9.60;1.00;;;;;;5032414;28;20399;-68
2023/12/19 02:07:33;;;;;;;9.80;7.83;;;9.50;1.00;;;;;;5033862;28;20395;-66
2023/12/19 02:10:00;;;;;;;13.77;7.10;;;9.50;1.00;;;;;;5032065;28;20882;-66
2023/12/19 02:12:26;;;;;;;8.50;7.00;;;9.60;1.00;;;;;;5064442;28;20435;-66
2023/12/19 02:14:52;;;;;;;9.60;7.03;;;9.60;1.00;;;;;;5072717;28;20367;-67
2023/12/19 02:17:18;;;;;;;7.60;6.60;;;9.50;1.00;;;;;;5072409;28;20436;-66
2023/12/19 02:19:46;;;;;;;6.70;6.00;;;9.50;1.00;;;;;;5053948;28;20431;-67
2023/12/19 02:22:12;;;;;;;6.33;5.60;;;9.50;1.00;;;;;;5052573;28;20405;-66
2023/12/19 02:24:38;;;;;;;8.20;6.47;;;9.50;1.00;;;;;;5051627;28;20462;-66
2023/12/19 02:27:04;;;;;;;6.87;6.17;;;9.50;1.00;;;;;;5054206;28;20421;-67
2023/12/19 02:29:30;;;;;;;5.07;4.50;;;9.50;1.00;;;;;;5057691;28;20208;-65
2023/12/19 02:31:57;;;;;;;6.27;5.67;;;9.50;1.00;;;;;;5069560;28;20471;-67
2023/12/19 02:34:23;;;;;;;8.80;5.70;;;9.50;1.00;;;;;;5065705;28;20171;-71
2023/12/19 02:36:49;;;;;;;6.60;5.40;;;9.50;1.00;;;;;;5060920;28;20874;-65
2023/12/19 02:39:14;;;;;;;5.17;4.67;;;9.50;1.00;;;;;;5076690;28;20287;-66
2023/12/19 02:41:40;;;;;;;6.07;5.47;;;9.50;1.00;;;;;;5077526;28;20173;-68
2023/12/19 02:44:06;;;;;;;7.40;6.50;;;9.50;1.00;;;;;;5062093;28;20694;-67
2023/12/19 02:46:34;;;;;;;5.07;4.57;;;9.50;1.00;;;;;;5064353;28;20198;-66
2023/12/19 02:49:00;;;;;;;5.60;4.70;;;9.50;1.00;;;;;;5077024;28;20744;-66
2023/12/19 02:51:26;;;;;;;6.43;5.90;;;9.50;1.00;;;;;;5076879;28;20426;-66
2023/12/19 02:53:53;;;;;;;5.20;4.73;;;9.50;1.00;;;;;;5076932;28;20559;-66
2023/12/19 02:56:19;;;;;;;5.43;4.93;;;9.50;1.00;;;;;;5076158;28;20642;-67
2023/12/19 02:58:45;;;;;;;4.87;4.43;;;9.50;1.00;;;;;;5069034;28;21030;-66
2023/12/19 03:01:11;;;;;;;4.60;4.20;;;9.50;1.00;;;;;;5071629;28;20409;-64
2023/12/19 03:03:39;;;;;;;5.40;4.70;;;9.50;1.00;;;;;;5071000;28;20402;-66
2023/12/19 03:06:05;;;;;;;5.40;4.90;;;9.50;1.00;;;;;;5074961;28;20828;-66
2023/12/19 03:08:30;;;;;;;5.10;4.60;;;9.50;1.00;;;;;;5076273;28;20433;-68
2023/12/19 03:10:58;;;;;;;5.50;4.27;;;9.50;1.00;;;;;;5076664;28;20581;-66
2023/12/19 03:13:23;;;;;;;4.83;4.43;;;9.50;1.00;;;;;;5072699;28;20168;-67
2023/12/19 03:15:49;;;;;;;4.30;3.90;;;9.60;1.00;;;;;;5043051;28;20413;-68
2023/12/19 03:18:15;;;;;;;5.77;5.17;;;9.50;1.00;;;;;;5072954;28;20207;-67
2023/12/19 03:20:41;;;;;;;4.90;4.50;;;9.50;1.00;;;;;;5076349;28;20211;-67
2023/12/19 03:23:07;;;;;;;4.30;3.87;;;9.50;1.00;;;;;;5076513;28;20207;-66
2023/12/19 03:25:33;;;;;;;4.30;3.97;;;9.50;1.00;;;;;;5072910;28;20438;-66
2023/12/19 03:27:58;;;;;;;3.67;3.37;;;9.50;1.00;;;;;;5064405;28;20197;-67
2023/12/19 03:30:24;;;;;;;3.63;3.33;;;9.50;1.00;;;;;;5076298;28;20252;-66
2023/12/19 03:32:49;;;;;;;3.90;3.60;;;9.50;1.00;;;;;;5067425;28;20189;-66
2023/12/19 03:35:15;;;;;;;3.00;2.80;;;9.50;1.00;;;;;;5074579;28;20178;-67
2023/12/19 03:37:41;;;;;;;3.23;3.03;;;9.50;1.00;;;;;;5075303;28;20205;-67
2023/12/19 03:40:07;;;;;;;3.20;3.00;;;9.50;1.00;;;;;;5062551;28;20212;-68
2023/12/19 03:42:33;;;;;;;3.60;3.30;;;9.50;1.00;;;;;;5069051;28;20176;-66
2023/12/19 03:44:59;;;;;;;2.90;2.63;;;9.40;1.00;;;;;;5075034;28;20410;-66
2023/12/19 03:47:25;;;;;;;2.73;2.53;;;9.40;1.00;;;;;;5074866;28;20229;-68
2023/12/19 03:49:51;;;;;;;2.57;2.47;;;9.40;1.00;;;;;;5075708;28;20959;-66
2023/12/19 03:52:17;;;;;;;2.90;2.70;;;9.40;1.00;;;;;;5076050;28;20172;-66
2023/12/19 03:54:43;;;;;;;3.30;3.10;;;9.40;1.00;;;;;;5069776;28;20177;-66
2023/12/19 03:57:08;;;;;;;2.80;2.60;;;9.40;1.00;;;;;;5067427;28;20442;-66
2023/12/19 03:59:34;;;;;;;3.63;2.77;;;9.40;1.00;;;;;;5075948;28;20209;-66
2023/12/19 04:02:00;;;;;;;3.30;3.07;;;9.40;1.00;;;;;;5058225;28;20182;-65
2023/12/19 04:04:25;;;;;;;3.70;3.40;;;9.30;1.00;;;;;;5055420;28;20163;-67
2023/12/19 04:06:51;;;;;;;4.60;4.00;;;9.30;1.00;;;;;;5054905;28;20412;-67
2023/12/19 04:09:17;;;;;;;4.30;3.90;;;9.30;1.00;;;;;;5055321;28;20177;-66
2023/12/19 04:11:47;;;;;;;4.40;4.00;;;9.30;1.00;;;;;;5055391;28;20632;-67
2023/12/19 04:14:17;;;;;;;4.97;4.00;;;9.30;1.00;;;;;;5055153;28;20311;-66
2023/12/19 04:16:43;;;;;;;5.40;4.23;;;9.30;1.00;;;;;;5059998;28;20398;-69
2023/12/19 04:19:09;;;;;;;4.63;4.23;;;9.30;1.00;;;;;;5068398;28;20430;-65
2023/12/19 04:21:36;;;;;;;4.17;3.80;;;9.20;1.00;;;;;;5075404;28;20379;-67
2023/12/19 04:24:05;;;;;;;3.90;3.60;;;9.20;1.00;;;;;;5063712;28;20402;-65
2023/12/19 04:26:31;;;;;;;5.30;3.63;;;9.20;1.00;;;;;;5067085;28;20383;-67
2023/12/19 04:28:57;;;;;;;4.37;3.97;;;9.20;1.00;;;;;;5055486;28;20435;-68
2023/12/19 04:31:22;;;;;;;4.33;3.87;;;9.20;1.00;;;;;;5056920;28;20173;-67
2023/12/19 04:33:48;;;;;;;4.23;3.87;;;9.10;1.00;;;;;;5054827;28;20530;-69
2023/12/19 04:36:14;;;;;;;4.03;3.53;;;9.10;1.00;;;;;;5054121;28;20587;-66
2023/12/19 04:38:40;;;;;;;4.53;4.10;;;9.10;1.00;;;;;;5069115;28;20535;-68
2023/12/19 04:41:05;;;;;;;4.97;4.57;;;9.10;1.00;;;;;;5075781;28;20160;-66
2023/12/19 04:43:31;;;;;;;4.60;4.27;;;9.10;1.00;;;;;;5074249;28;20173;-66
2023/12/19 04:45:57;;;;;;;4.50;4.17;;;9.10;1.00;;;;;;5073398;28;20400;-67
2023/12/19 04:48:23;;;;;;;4.67;4.17;;;9.10;1.00;;;;;;5057655;28;20201;-65
2023/12/19 04:50:48;;;;;;;4.67;4.27;;;9.10;1.00;;;;;;5056313;28;20446;-66
2023/12/19 04:53:16;;;;;;;4.80;4.40;;;9.00;1.00;;;;;;5063704;28;20209;-66
2023/12/19 04:55:41;;;;;;;4.23;3.93;;;9.00;1.00;;;;;;5073794;28;20197;-66
2023/12/19 04:58:07;;;;;;;4.37;3.97;;;9.10;1.00;;;;;;5074660;28;20904;-66
2023/12/19 05:00:32;;;;;;;3.57;3.27;;;9.10;1.00;;;;;;5072619;28;20246;-66
2023/12/19 05:02:58;;;;;;;4.43;3.77;;;9.00;1.00;;;;;;5061540;28;20187;-66
2023/12/19 05:05:24;;;;;;;3.70;3.40;;;8.90;1.00;;;;;;5072674;28;20193;-66
2023/12/19 05:07:49;;;;;;;3.50;3.20;;;8.90;1.00;;;;;;5074605;28;20197;-66
2023/12/19 05:10:15;;;;;;;4.30;4.00;;;8.90;1.00;;;;;;5072900;28;20215;-68
2023/12/19 05:12:41;;;;;;;3.63;3.33;;;8.90;1.00;;;;;;5074074;28;20185;-66
2023/12/19 05:15:07;;;;;;;3.90;3.60;;;8.90;1.00;;;;;;5070523;28;20229;-68
2023/12/19 05:17:32;;;;;;;3.60;3.30;;;8.80;1.00;;;;;;5073660;28;20190;-68
2023/12/19 05:19:59;;;;;;;4.70;4.30;;;8.80;1.00;;;;;;5071607;28;20459;-69
2023/12/19 05:22:25;;;;;;;4.73;4.33;;;8.80;1.00;;;;;;5074323;28;20241;-66
2023/12/19 05:24:50;;;;;;;4.50;4.10;;;8.80;1.00;;;;;;5053187;28;21340;-66
2023/12/19 05:27:16;;;;;;;5.80;5.30;;;8.80;1.00;;;;;;5054767;28;20557;-66
2023/12/19 05:29:43;;;;;;;5.70;5.20;;;8.80;1.00;;;;;;5066625;28;20277;-67
2023/12/19 05:32:08;;;;;;;6.37;5.87;;;8.70;1.00;;;;;;5052545;28;20189;-65
2023/12/19 05:34:34;;;;;;;6.90;5.97;;;8.70;1.00;;;;;;5052743;28;20465;-66
2023/12/19 05:37:00;;;;;;;5.57;5.07;;;8.80;1.00;;;;;;5054030;28;20165;-66
2023/12/19 05:39:26;;;;;;;6.20;5.53;;;8.70;1.00;;;;;;5053854;28;20598;-69
2023/12/19 05:41:56;;;;;;;5.50;5.10;;;8.70;1.00;;;;;;5053671;28;20403;-65
2023/12/19 05:44:22;;;;;;;6.63;5.93;;;8.70;1.00;;;;;;5059210;28;20166;-66
2023/12/19 05:46:47;;;;;;;7.67;6.87;;;8.60;1.00;;;;;;5065260;28;20760;-67
2023/12/19 05:49:13;;;;;;;8.00;7.17;;;8.60;1.00;;;;;;5053642;28;20425;-65
2023/12/19 05:51:39;;;;;;;7.60;7.00;;;8.50;1.00;;;;;;5053833;28;20168;-65
2023/12/19 05:54:05;;;;;;;8.20;7.03;;;8.60;1.00;;;;;;5053488;28;20170;-65
2023/12/19 05:56:31;;;;;;;7.87;7.07;;;8.60;1.00;;;;;;5065729;28;20517;-66
2023/12/19 05:58:57;;;;;;;7.03;6.30;;;8.60;1.00;;;;;;5056334;28;20445;-65
2023/12/19 06:01:23;;;;;;;6.33;5.73;;;8.60;1.00;;;;;;5060487;28;20456;-66
2023/12/19 06:03:49;;;;;;;8.63;7.30;;;8.60;1.00;;;;;;5063792;28;20805;-66
2023/12/19 06:06:15;;;;;;;8.43;6.80;;;8.60;1.00;;;;;;5052104;28;20631;-66
2023/12/19 06:08:42;;;;;;;9.17;7.00;;;8.60;1.00;;;;;;5053413;28;20672;-66
2023/12/19 06:11:11;;;;;;;7.60;6.37;;;8.50;1.00;;;;;;5061889;28;20435;-66
2023/12/19 06:13:37;;;;;;;10.50;6.77;;;8.50;1.00;;;;;;5073445;28;20383;-68
2023/12/19 06:16:04;;;;;;;8.73;7.00;;;8.50;1.00;;;;;;5068201;28;20470;-66
2023/12/19 06:18:30;;;;;;;6.80;6.20;;;8.50;1.00;;;;;;5073449;28;20630;-69
2023/12/19 06:20:55;;;;;;;7.87;6.80;;;8.50;1.00;;;;;;5073582;28;20412;-68
2023/12/19 06:23:21;;;;;;;8.23;7.30;;;8.50;1.00;;;;;;5073491;28;20162;-68
2023/12/19 06:25:46;;;;;;;8.93;7.60;;;8.50;1.00;;;;;;5071969;28;20174;-67
2023/12/19 06:28:15;;;;;;;8.63;7.10;;;8.50;1.00;;;;;;5072714;28;20205;-67
2023/12/19 06:30:40;;;;;;;8.80;7.40;;;8.50;1.00;;;;;;5054423;28;20194;-66
2023/12/19 06:33:06;;;;;;;7.67;6.87;;;8.50;1.00;;;;;;5064578;28;20452;-69
2023/12/19 06:35:32;;;;;;;8.90;7.53;;;8.50;1.00;;;;;;5072600;28;20166;-67
2023/12/19 06:37:58;;;;;;;10.60;8.70;;;8.50;1.00;;;;;;5071982;28;20475;-66
2023/12/19 06:40:23;;;;;;;10.20;7.57;;;8.40;1.00;;;;;;5054811;28;20285;-68
2023/12/19 06:42:50;;;;;;;12.77;8.57;;;8.50;1.00;;;;;;5053344;28;20547;-68
2023/12/19 06:45:15;;;;;;;12.43;8.53;;;8.50;1.00;;;;;;5068145;28;20470;-69
2023/12/19 06:47:41;;;;;;;12.43;9.03;;;8.50;1.00;;;;;;5069680;28;20445;-67
2023/12/19 06:50:07;;;;;;;9.70;8.23;;;8.50;1.00;;;;;;5073107;28;20237;-66
2023/12/19 06:52:33;;;;;;;11.63;9.17;;;8.50;1.00;;;;;;5073422;28;20178;-67
2023/12/19 06:54:59;;;;;;;11.03;7.47;;;8.50;1.00;;;;;;5072849;28;20417;-69
2023/12/19 06:57:26;;;;;;;10.83;8.30;;;8.40;1.00;;;;;;5073279;28;20432;-66
2023/12/19 06:59:52;;;;;;;8.90;7.97;;;8.40;1.00;;;;;;5058986;28;20230;-67
2023/12/19 07:02:17;;;;;;;10.97;7.83;;;8.40;1.00;;;;;;5069773;28;20807;-66
2023/12/19 07:04:43;;;;;;;11.20;7.93;;;8.40;1.00;;;;;;5070297;28;20172;-67
2023/12/19 07:07:09;;;;;;;10.10;7.40;;;8.40;1.00;;;;;;5059857;28;20210;-68
2023/12/19 07:09:38;;;;;;;11.43;7.53;;;8.30;1.00;;;;;;5067095;28;20266;-66
2023/12/19 07:12:04;;;;;;;9.60;8.00;;;8.30;1.00;;;;;;5071932;28;20240;-67
2023/12/19 07:14:29;;;;;;;11.60;8.90;;;8.30;1.00;;;;;;5063268;28;20408;-78
2023/12/19 07:16:55;;;;;;;9.23;7.47;;;8.30;1.00;;;;;;5064755;28;20186;-68
2023/12/19 07:19:21;;;;;;;7.70;6.83;;;8.30;1.00;;;;;;5069729;28;20209;-68
2023/12/19 07:21:48;;;;;;;7.57;6.77;;;8.40;1.00;;;;;;5077121;28;20255;-67
2023/12/19 07:24:14;;;;;;;8.80;7.03;;;8.40;1.00;;;;;;5073734;28;20448;-67
2023/12/19 07:26:39;;;;;;;7.37;5.97;;;8.30;1.00;;;;;;5073322;28;20411;-67
2023/12/19 07:29:08;;;;;;;6.27;5.67;;;8.20;1.00;;;;;;5042040;28;20276;-66
2023/12/19 07:31:35;;;;;;;7.50;5.53;;;8.20;1.00;;;;;;5074051;28;20216;-66
2023/12/19 07:34:06;;;;;;;7.10;5.70;;;8.30;1.00;;;;;;5075977;28;20386;-74
2023/12/19 07:36:33;;;;;;;7.83;6.63;;;8.30;1.00;;;;;;5053917;28;20181;-74
2023/12/19 07:38:58;;;;;;;6.93;6.27;;;8.30;1.00;;;;;;5056074;28;20471;-66
2023/12/19 07:41:26;;;;;;;7.10;6.27;;;8.30;1.00;;;;;;5055862;28;20411;-66
2023/12/19 07:43:53;;;;;;;7.30;6.27;;;8.30;1.00;;;;;;5072885;28;20172;-66
2023/12/19 07:46:19;;;;;;;7.17;6.47;;;8.20;1.00;;;;;;5063174;28;20439;-66
2023/12/19 07:48:45;;;;;;;7.10;6.40;;;8.30;1.00;;;;;;5057493;28;20452;-68
2023/12/19 07:51:23;;;;;;;6.50;5.87;;;8.30;1.00;;;;;;5074871;28;20386;-67
2023/12/19 07:53:54;;;;;;;10.23;6.87;;;8.30;1.00;;;;;;5074585;28;20386;-65
2023/12/19 07:56:20;;;;;;;6.23;5.63;;;8.30;1.00;;;;;;5074791;28;20864;-68
2023/12/19 07:58:46;;;;;;;6.60;6.00;;;8.30;1.00;;;;;;5072994;28;20467;-66
2023/12/19 08:01:12;;;;;;;8.53;6.03;;;8.30;1.00;;;;;;5069381;28;20170;-65
2023/12/19 08:03:40;;;;;;;6.83;6.23;;;8.20;1.00;;;;;;5059980;28;20438;-67
2023/12/19 08:06:06;;;;;;;7.83;6.43;;;8.10;1.00;;;;;;5054798;28;20908;-67
2023/12/19 08:08:32;;;;;;;6.33;5.30;;;8.20;1.00;;;;;;5056278;28;20472;-66
2023/12/19 08:10:58;;;;;;;5.87;5.27;;;8.20;1.00;;;;;;5052042;28;20176;-77
2023/12/19 08:13:24;;;;;;;6.07;5.47;;;8.20;1.00;;;;;;5075793;28;20433;-67
2023/12/19 08:15:50;;;;;;;6.27;5.33;;;8.20;1.00;;;;;;5063618;28;20772;-66
2023/12/19 08:18:16;;;;;;;5.37;4.87;;;8.20;1.00;;;;;;5054508;28;20474;-67
2023/12/19 08:20:42;;;;;;;6.27;4.70;;;8.20;1.00;;;;;;5053663;28;20466;-71
2023/12/19 08:23:09;;;;;;;4.53;4.17;;;8.10;1.00;;;;;;5056564;28;20449;-66
2023/12/19 08:25:34;;;;;;;6.20;5.60;;;8.10;1.00;;;;;;5063921;28;20419;-66
2023/12/19 08:28:01;;;;;;;5.80;5.30;;;8.10;1.00;;;;;;5060193;28;20466;-66
2023/12/19 08:30:27;;;;;;;5.23;4.73;;;8.20;1.00;;;;;;5067096;28;20192;-66
2023/12/19 08:32:59;;;;;;;7.50;5.50;;;8.20;1.00;;;;;;5066778;28;20409;-67
2023/12/19 08:35:25;;;;;;;5.37;4.87;;;8.20;1.00;;;;;;5053899;28;20473;-71
2023/12/19 08:37:52;;;;;;;5.17;4.67;;;8.20;1.00;;;;;;5070094;28;20455;-65
2023/12/19 08:40:19;;;;;;;5.97;5.47;;;8.10;1.00;;;;;;5058100;28;20459;-75
2023/12/19 08:42:44;;;;;;;6.10;4.47;;;8.10;1.00;;;;;;5054453;28;20434;-68
2023/12/19 08:45:22;;;;;;;4.87;4.23;;;8.20;1.00;;;;;;5053993;28;20458;-69
2023/12/19 08:47:49;;;;;;;5.47;4.93;;;8.10;1.00;;;;;;5054656;28;20850;-67
2023/12/19 08:50:15;;;;;;;7.10;4.60;;;8.20;1.00;;;;;;5049939;28;20433;-67
2023/12/19 08:52:42;;;;;;;5.93;4.73;;;8.20;1.00;;;;;;5069197;28;20978;-66
2023/12/19 08:55:10;;;;;;;6.20;5.10;;;8.20;1.00;;;;;;5072814;28;20769;-66
2023/12/19 08:57:40;;;;;;;5.90;5.37;;;8.20;1.00;;;;;;5073488;28;20426;-66
2023/12/19 09:00:06;;;;;;;4.80;4.40;;;8.20;1.00;;;;;;5060284;28;20527;-69
2023/12/19 09:02:32;;;;;;;5.17;4.60;;;8.20;1.00;;;;;;5055687;28;20735;-67
2023/12/19 09:04:58;;;;;;;4.80;4.43;;;8.20;1.00;;;;;;5053600;28;20407;-66
2023/12/19 09:07:23;;;;;;;6.47;5.87;;;8.20;1.00;;;;;;5061848;28;20262;-66
2023/12/19 09:09:51;;;;;;;4.47;4.00;;;8.20;1.00;;;;;;5072468;28;20172;-66
2023/12/19 09:12:17;;;;;;;9.07;5.37;;;8.20;1.00;;;;;;5055565;28;20272;-66
2023/12/19 09:14:43;;;;;;;5.43;4.77;;;8.20;1.00;;;;;;5060775;28;20464;-67
2023/12/19 09:17:08;;;;;;;4.73;4.33;;;8.10;1.00;;;;;;5052859;28;20232;-66
2023/12/19 09:19:37;;;;;;;5.37;4.40;;;8.10;1.00;;;;;;5069140;28;20206;-66
2023/12/19 09:22:03;;;;;;;4.23;3.93;;;8.10;1.00;;;;;;5046665;28;20182;-65
2023/12/19 09:24:30;;;;;;;5.13;4.33;;;8.20;1.00;;;;;;5069188;28;20448;-70
2023/12/19 09:26:59;;;;;;;3.20;3.00;;;8.10;1.00;;;;;;5050479;28;20496;-67
2023/12/19 09:29:27;;;;;;;4.53;4.13;;;8.10;1.00;;;;;;5066291;28;20517;-66
2023/12/19 09:31:53;;;;;;;4.67;4.27;;;8.10;1.00;;;;;;5059753;28;20426;-67
2023/12/19 09:34:19;;;;;;;4.40;4.00;;;8.10;1.00;;;;;;5068981;28;20499;-66
2023/12/19 09:36:45;;;;;;;3.60;3.40;;;8.10;1.00;;;;;;5053751;28;20446;-66
2023/12/19 09:39:14;;;;;;;4.83;4.30;;;8.10;1.00;;;;;;5053296;28;20254;-66
2023/12/19 09:41:45;;;;;;;5.03;3.90;;;8.20;1.00;;;;;;5053465;28;20894;-66
2023/12/19 09:44:11;;;;;;;4.77;4.37;;;8.30;1.00;;;;;;5055831;28;20921;-66
2023/12/19 09:46:37;;;;;;;5.73;5.07;;;8.40;1.00;;;;;;5073099;28;20947;-66
2023/12/19 09:49:03;;;;;;;4.70;4.30;;;8.40;1.00;;;;;;5066709;28;20524;-66
2023/12/19 09:51:32;;;;;;;4.23;3.90;;;8.50;1.00;;;;;;5073905;28;20181;-67
2023/12/19 09:54:00;;;;;;;4.33;4.03;;;8.50;1.00;;;;;;5069243;28;20437;-66
2023/12/19 09:56:27;;;;;;;3.70;3.47;;;8.40;1.00;;;;;;5060148;28;20442;-68
2023/12/19 09:58:57;;;;;;;4.30;3.90;;;8.40;1.00;;;;;;5049348;28;20968;-66
2023/12/19 10:01:23;;;;;;;4.63;4.23;;;8.30;1.00;;;;;;5059714;28;20445;-71
2023/12/19 10:03:49;;;;;;;5.23;4.83;;;8.30;1.00;;;;;;5048904;28;20435;-67
2023/12/19 10:06:17;;;;;;;5.13;4.73;;;8.20;1.00;;;;;;5051307;28;20227;-65
2023/12/19 10:08:44;;;;;;;4.00;3.70;;;8.30;1.00;;;;;;5057727;28;20501;-66
2023/12/19 10:11:17;;;;;;;4.03;3.73;;;8.20;1.00;;;;;;5053659;28;20724;-65
2023/12/19 10:13:43;;;;;;;3.67;3.37;;;8.20;1.00;;;;;;5051624;28;20432;-67
2023/12/19 10:16:11;;;;;;;3.77;3.47;;;8.20;1.00;;;;;;5064982;28;20509;-66
2023/12/19 10:18:38;;;;;;;4.03;3.73;;;8.20;1.00;;;;;;5073006;28;20183;-66
2023/12/19 10:21:08;;;;;;;3.97;3.77;;;8.20;1.00;;;;;;5065147;28;20496;-65
2023/12/19 10:23:37;;;;;;;4.40;4.10;;;8.20;1.00;;;;;;5068906;28;20444;-72
2023/12/19 10:26:04;;;;;;;4.57;4.17;;;8.20;1.00;;;;;;5032530;28;20398;-66
2023/12/19 10:28:30;;;;;;;4.07;3.77;;;8.20;1.00;;;;;;5046255;28;20441;-65
2023/12/19 10:31:14;;;;;;;4.20;3.90;;;8.20;1.00;;;;;;5063397;28;20426;-67
2023/12/19 10:33:40;;;;;;;4.00;3.70;;;8.20;1.00;;;;;;5053389;28;20415;-67
2023/12/19 10:36:06;;;;;;;3.87;3.57;;;8.10;1.00;;;;;;5052252;28;20422;-65
2023/12/19 10:38:45;;;;;;;4.90;4.50;;;8.20;1.00;;;;;;5058869;28;20208;-67
2023/12/19 10:41:17;;;;;;;5.30;4.83;;;8.20;1.00;;;;;;5056136;28;20584;-66
2023/12/19 10:43:44;;;;;;;4.93;4.20;;;8.20;1.00;;;;;;5066436;28;20466;-66
2023/12/19 10:46:13;;;;;;;7.33;4.67;;;8.20;1.00;;;;;;5065245;28;20457;-65
2023/12/19 10:48:39;;;;;;;4.37;4.00;;;8.20;1.00;;;;;;5070445;28;20426;-66
2023/12/19 10:51:07;;;;;;;4.70;4.30;;;8.20;1.00;;;;;;5055976;28;20461;-65
2023/12/19 10:53:33;;;;;;;4.93;4.60;;;8.20;1.00;;;;;;5060523;28;20328;-66
2023/12/19 10:56:03;;;;;;;4.93;4.53;;;8.20;1.00;;;;;;5060114;28;20525;-67
2023/12/19 10:58:29;;;;;;;5.23;4.83;;;8.20;1.00;;;;;;5057389;28;20422;-66
2023/12/19 11:00:55;;;;;;;4.60;4.30;;;8.20;1.00;;;;;;5065117;28;20794;-66
2023/12/19 11:03:29;;;;;;;4.70;4.37;;;8.20;1.00;;;;;;5062483;28;20172;-67
2023/12/19 11:05:56;;;;;;;4.93;4.53;;;8.20;1.00;;;;;;5068564;28;20769;-68
2023/12/19 11:08:22;;;;;;;6.90;6.30;;;8.20;1.00;;;;;;5064381;28;20507;-68
2023/12/19 11:10:58;;;;;;;4.60;4.27;;;8.20;1.00;;;;;;5070901;28;20437;-66
2023/12/19 11:13:25;;;;;;;4.37;4.07;;;8.20;1.00;;;;;;5066776;28;20452;-66
2023/12/19 11:16:02;;;;;;;5.03;4.70;;;8.20;1.00;;;;;;5047191;28;20766;-65
2023/12/19 11:18:48;;;;;;;5.10;4.70;;;8.20;1.00;;;;;;5053110;28;20481;-68
2023/12/19 11:21:29;;;;;;;4.80;4.30;;;8.20;1.00;;;;;;5059778;28;20455;-66
2023/12/19 11:24:14;;;;;;;5.77;4.80;;;8.20;1.00;;;;;;5037421;28;20857;-67
2023/12/19 11:27:17;;;;;;;5.63;5.00;;;8.20;1.00;;;;;;5057279;28;20416;-67
2023/12/19 11:29:51;;;;;;;5.53;5.13;;;8.20;1.00;;;;;;5051680;28;20794;-67
2023/12/19 11:32:28;;;;;;;5.77;5.27;;;8.30;1.00;;;;;;5036502;28;20439;-67
2023/12/19 11:35:06;;;;;;;5.80;5.37;;;8.30;1.00;;;;;;5050595;28;20871;-69
2023/12/19 11:37:33;;;;;;;6.00;4.80;;;8.30;1.00;;;;;;5042977;28;20454;-66
2023/12/19 11:39:58;;;;;;;4.80;4.40;;;8.20;1.00;;;;;;5048874;28;20468;-66
2023/12/19 11:42:39;;;;;;;5.00;4.60;;;8.20;1.00;;;;;;5052634;28;20521;-69
2023/12/19 11:45:25;;;;;;;5.60;5.00;;;8.20;1.00;;;;;;5051335;28;20172;-66
2023/12/19 11:47:52;;;;;;;5.40;4.90;;;8.30;1.00;;;;;;5042554;28;20897;-66
2023/12/19 11:50:39;;;;;;;4.80;4.40;;;8.20;1.00;;;;;;5073127;28;20411;-66
2023/12/19 11:53:06;;;;;;;4.77;4.37;;;8.20;1.00;;;;;;5056609;28;20432;-66
2023/12/19 11:55:31;;;;;;;6.30;5.13;;;8.30;1.00;;;;;;5053709;28;20422;-65
2023/12/19 11:58:10;;;;;;;5.33;4.83;;;8.30;1.00;;;;;;5059892;28;20814;-66
2023/12/19 12:00:36;;;;;;;5.60;5.10;;;8.30;1.00;;;;;;5059655;28;20471;-66
2023/12/19 12:03:09;;;;;;;4.70;4.40;;;8.30;1.00;;;;;;5034087;28;20844;-66
2023/12/19 12:05:36;;;;;;;9.77;6.80;;;8.30;1.00;;;;;;5044921;28;20174;-68
2023/12/19 12:08:03;;;;;;;5.97;5.47;;;8.30;1.00;;;;;;5043502;28;20442;-67
2023/12/19 12:10:29;;;;;;;4.87;4.50;;;8.30;1.00;;;;;;5034308;28;20412;-67
2023/12/19 12:13:01;;;;;;;5.57;5.07;;;8.20;1.00;;;;;;5048490;28;20443;-67
2023/12/19 12:15:27;;;;;;;7.60;4.70;;;8.20;1.00;;;;;;5063727;28;20547;-69
2023/12/19 12:18:04;;;;;;;4.93;4.63;;;8.20;1.00;;;;;;5057750;28;21034;-67
2023/12/19 12:20:34;;;;;;;4.87;4.47;;;8.20;1.00;;;;;;5053540;28;20461;-67
2023/12/19 12:23:02;;;;;;;5.00;4.63;;;8.20;1.00;;;;;;5052707;28;20439;-67
2023/12/19 12:25:28;;;;;;;6.40;5.80;;;8.20;1.00;;;;;;5053592;28;20439;-67
2023/12/19 12:28:06;;;;;;;7.03;5.60;;;8.20;1.00;;;;;;5052633;28;20429;-67
2023/12/19 12:30:33;;;;;;;5.13;4.60;;;8.30;1.00;;;;;;5043784;28;20185;-67
2023/12/19 12:33:01;;;;;;;4.53;4.23;;;8.20;1.00;;;;;;5053595;28;20500;-68
2023/12/19 12:35:35;;;;;;;4.70;4.30;;;8.20;1.00;;;;;;5056572;28;20914;-67
2023/12/19 12:38:16;;;;;;;4.90;4.50;;;8.20;1.00;;;;;;5047852;28;20482;-68
2023/12/19 12:41:01;;;;;;;3.87;3.57;;;8.30;1.00;;;;;;5052788;28;20449;-67
2023/12/19 12:43:37;;;;;;;5.33;4.23;;;8.30;1.00;;;;;;5052800;28;20916;-67
2023/12/19 12:46:03;;;;;;;4.90;4.40;;;8.30;1.00;;;;;;5042719;28;20430;-67
2023/12/19 12:48:29;;;;;;;4.50;4.20;;;8.30;1.00;;;;;;5052631;28;20805;-66
2023/12/19 12:50:55;;;;;;;4.27;3.97;;;8.30;1.00;;;;;;5053348;28;20267;-67
2023/12/19 12:53:21;;;;;;;6.80;4.13;;;8.30;1.00;;;;;;5042553;28;20471;-66
2023/12/19 12:55:47;;;;;;;4.20;3.90;;;8.30;1.00;;;;;;5033633;28;20402;-67
2023/12/19 12:58:19;;;;;;;3.93;3.63;;;8.20;1.00;;;;;;5036068;28;20439;-68
2023/12/19 13:00:45;;;;;;;5.07;4.60;;;8.30;1.00;;;;;;5046123;28;20217;-67
2023/12/19 13:03:11;;;;;;;6.63;4.10;;;8.30;1.00;;;;;;5058555;28;20416;-68
2023/12/19 13:05:36;;;;;;;4.53;4.23;;;8.30;1.00;;;;;;5053080;28;20412;-67
2023/12/19 13:08:02;;;;;;;4.83;4.43;;;8.30;1.00;;;;;;5054310;28;20186;-69